createdAt,value
2018-07-08T00:00:53.351Z,23.56
2018-07-08T00:01:53.935Z,23.58
2018-07-08T00:02:54.521Z,23.56
2018-07-08T00:03:55.108Z,23.55
2018-07-08T00:04:55.694Z,23.59
2018-07-08T00:05:56.331Z,23.58
2018-07-08T00:06:56.919Z,23.59
2018-07-08T00:07:57.553Z,23.54
2018-07-08T00:08:58.143Z,23.55
2018-07-08T00:09:58.723Z,23.51
2018-07-08T00:10:59.309Z,23.50
2018-07-08T00:11:59.895Z,23.46
2018-07-08T00:13:00.531Z,23.48
2018-07-08T00:14:01.116Z,23.48
2018-07-08T00:15:01.753Z,23.50
2018-07-08T00:16:02.336Z,23.54
2018-07-08T00:17:02.918Z,23.47
2018-07-08T00:18:03.497Z,23.41
2018-07-08T00:19:04.088Z,23.50
2018-07-08T00:20:04.673Z,23.46
2018-07-08T00:21:05.259Z,23.48
2018-07-08T00:22:05.846Z,23.48
2018-07-08T00:23:06.428Z,23.56
2018-07-08T00:24:07.020Z,23.50
2018-07-08T00:25:07.655Z,23.47
2018-07-08T00:26:08.289Z,23.48
2018-07-08T00:27:08.921Z,23.50
2018-07-08T00:28:09.511Z,23.46
2018-07-08T00:29:10.146Z,23.47
2018-07-08T00:30:10.782Z,23.44
2018-07-08T00:31:11.368Z,23.51
2018-07-08T00:32:11.956Z,23.43
2018-07-08T00:33:12.546Z,23.51
2018-07-08T00:34:13.169Z,23.50
2018-07-08T00:35:13.752Z,23.48
2018-07-08T00:36:14.341Z,23.44
2018-07-08T00:37:14.929Z,23.46
2018-07-08T00:38:15.516Z,23.41
2018-07-08T00:39:16.151Z,23.43
2018-07-08T00:40:16.736Z,23.44
2018-07-08T00:41:17.322Z,23.40
2018-07-08T00:42:17.902Z,23.39
2018-07-08T00:43:18.540Z,23.43
2018-07-08T00:44:19.123Z,23.39
2018-07-08T00:45:19.710Z,23.37
2018-07-08T00:46:20.347Z,23.43
2018-07-08T00:47:20.983Z,23.39
2018-07-08T00:48:21.566Z,23.36
2018-07-08T00:49:22.156Z,23.43
2018-07-08T00:50:22.735Z,23.43
2018-07-08T00:51:23.321Z,23.40
2018-07-08T00:52:23.908Z,23.36
2018-07-08T00:53:24.492Z,23.41
2018-07-08T00:54:25.079Z,23.36
2018-07-08T00:55:25.659Z,23.39
2018-07-08T00:56:26.249Z,23.40
2018-07-08T00:57:26.838Z,23.40
2018-07-08T00:58:27.424Z,23.40
2018-07-08T00:59:28.057Z,23.34
2018-07-08T01:00:28.655Z,23.40
2018-07-08T01:01:29.235Z,23.40
2018-07-08T01:02:29.816Z,23.37
2018-07-08T01:03:30.449Z,23.39
2018-07-08T01:04:31.035Z,23.37
2018-07-08T01:05:31.621Z,23.34
2018-07-08T01:06:32.301Z,23.36
2018-07-08T01:07:32.933Z,23.40
2018-07-08T01:08:33.524Z,23.37
2018-07-08T01:09:34.101Z,23.32
2018-07-08T01:10:34.695Z,23.31
2018-07-08T01:11:35.278Z,23.43
2018-07-08T01:12:35.911Z,23.31
2018-07-08T01:13:36.497Z,23.31
2018-07-08T01:14:37.079Z,23.28
2018-07-08T01:15:37.666Z,23.40
2018-07-08T01:16:38.248Z,23.39
2018-07-08T01:17:38.831Z,23.34
2018-07-08T01:18:39.420Z,23.32
2018-07-08T01:19:40.050Z,23.34
2018-07-08T01:20:40.634Z,23.27
2018-07-08T01:21:41.220Z,23.36
2018-07-08T01:22:41.861Z,23.41
2018-07-08T01:23:42.446Z,23.32
2018-07-08T01:24:43.032Z,23.34
2018-07-08T01:25:43.608Z,23.27
2018-07-08T01:26:44.243Z,23.31
2018-07-08T01:27:44.824Z,23.31
2018-07-08T01:28:45.407Z,23.32
2018-07-08T01:29:45.989Z,23.32
2018-07-08T01:30:46.576Z,23.34
2018-07-08T01:31:47.216Z,23.28
2018-07-08T01:32:47.799Z,23.41
2018-07-08T01:33:48.380Z,23.28
2018-07-08T01:34:48.967Z,23.40
2018-07-08T01:35:49.599Z,23.39
2018-07-08T01:36:50.187Z,23.40
2018-07-08T01:37:50.768Z,23.36
2018-07-08T01:38:51.350Z,23.34
2018-07-08T01:39:51.984Z,23.34
2018-07-08T01:40:52.573Z,23.31
2018-07-08T01:41:53.199Z,23.40
2018-07-08T01:42:53.790Z,23.28
2018-07-08T01:43:54.378Z,23.34
2018-07-08T01:44:54.965Z,23.39
2018-07-08T01:45:55.596Z,23.31
2018-07-08T01:46:56.227Z,23.36
2018-07-08T01:47:56.815Z,23.28
2018-07-08T01:48:57.401Z,23.39
2018-07-08T01:49:57.988Z,23.37
2018-07-08T01:50:58.626Z,23.34
2018-07-08T01:51:59.212Z,23.28
2018-07-08T01:52:59.790Z,23.32
2018-07-08T01:54:00.381Z,23.36
2018-07-08T01:55:00.966Z,23.28
2018-07-08T01:56:01.753Z,23.34
2018-07-08T01:57:02.339Z,23.23
2018-07-08T01:58:02.927Z,23.27
2018-07-08T01:59:03.562Z,23.23
2018-07-08T02:00:04.151Z,23.34
2018-07-08T02:01:04.735Z,23.25
2018-07-08T02:02:05.321Z,23.23
2018-07-08T02:03:05.907Z,23.21
2018-07-08T02:04:06.493Z,23.23
2018-07-08T02:05:07.080Z,23.24
2018-07-08T02:06:07.664Z,23.23
2018-07-08T02:07:08.253Z,23.25
2018-07-08T02:08:08.889Z,23.20
2018-07-08T02:09:09.521Z,23.21
2018-07-08T02:10:10.104Z,23.25
2018-07-08T02:11:10.693Z,23.21
2018-07-08T02:12:11.279Z,23.21
2018-07-08T02:13:11.867Z,23.24
2018-07-08T02:14:12.452Z,23.23
2018-07-08T02:15:13.039Z,23.18
2018-07-08T02:16:13.628Z,23.23
2018-07-08T02:17:14.208Z,23.24
2018-07-08T02:18:14.794Z,23.24
2018-07-08T02:19:15.431Z,23.27
2018-07-08T02:20:16.066Z,23.28
2018-07-08T02:21:16.653Z,23.21
2018-07-08T02:22:17.235Z,23.18
2018-07-08T02:23:17.821Z,23.23
2018-07-08T02:24:18.406Z,23.20
2018-07-08T02:25:19.038Z,23.18
2018-07-08T02:26:19.625Z,23.21
2018-07-08T02:27:20.263Z,23.17
2018-07-08T02:28:20.845Z,23.21
2018-07-08T02:29:21.436Z,23.20
2018-07-08T02:30:22.021Z,23.09
2018-07-08T02:31:22.607Z,23.17
2018-07-08T02:32:23.239Z,23.17
2018-07-08T02:33:23.827Z,23.17
2018-07-08T02:34:24.416Z,23.17
2018-07-08T02:35:25.000Z,23.20
2018-07-08T02:36:25.631Z,23.18
2018-07-08T02:37:26.220Z,23.13
2018-07-08T02:38:26.801Z,23.20
2018-07-08T02:39:27.439Z,23.21
2018-07-08T02:40:28.068Z,23.15
2018-07-08T02:41:28.707Z,23.23
2018-07-08T02:42:29.298Z,23.18
2018-07-08T02:43:29.876Z,23.15
2018-07-08T02:44:30.465Z,23.13
2018-07-08T02:45:31.101Z,23.13
2018-07-08T02:46:31.680Z,23.20
2018-07-08T02:47:32.268Z,23.18
2018-07-08T02:48:32.900Z,23.18
2018-07-08T02:49:33.486Z,23.12
2018-07-08T02:50:34.075Z,23.15
2018-07-08T02:51:34.670Z,23.20
2018-07-08T02:52:35.253Z,23.20
2018-07-08T02:53:35.828Z,23.18
2018-07-08T02:54:36.418Z,23.18
2018-07-08T02:55:37.055Z,23.18
2018-07-08T02:56:37.692Z,23.20
2018-07-08T02:57:38.325Z,23.18
2018-07-08T02:58:38.958Z,23.18
2018-07-08T02:59:39.589Z,23.18
2018-07-08T03:00:40.179Z,23.15
2018-07-08T03:01:40.761Z,23.15
2018-07-08T03:02:41.350Z,23.20
2018-07-08T03:03:41.982Z,23.21
2018-07-08T03:04:42.568Z,23.20
2018-07-08T03:05:43.162Z,23.18
2018-07-08T03:06:43.733Z,23.18
2018-07-08T03:07:44.322Z,23.21
2018-07-08T03:08:44.907Z,23.18
2018-07-08T03:09:45.493Z,23.17
2018-07-08T03:10:46.074Z,23.24
2018-07-08T03:11:46.652Z,23.17
2018-07-08T03:12:47.282Z,23.17
2018-07-08T03:13:47.917Z,23.15
2018-07-08T03:14:48.553Z,23.15
2018-07-08T03:17:52.535Z,23.17
2018-07-08T03:18:53.157Z,23.13
2018-07-08T03:19:53.730Z,23.08
2018-07-08T03:20:54.313Z,23.15
2018-07-08T03:22:08.655Z,23.08
2018-07-08T03:23:09.249Z,23.18
2018-07-08T03:24:09.863Z,23.13
2018-07-08T03:26:12.025Z,23.10
2018-07-08T03:27:12.604Z,23.10
2018-07-08T03:28:13.185Z,22.99
2018-07-08T03:29:13.766Z,23.05
2018-07-08T03:30:14.339Z,23.10
2018-07-08T03:31:14.921Z,23.05
2018-07-08T03:32:15.551Z,23.10
2018-07-08T03:33:16.181Z,23.06
2018-07-08T03:34:16.759Z,23.05
2018-07-08T03:35:17.487Z,23.05
2018-07-08T03:36:18.060Z,23.06
2018-07-08T03:37:18.638Z,23.02
2018-07-08T03:38:19.216Z,23.02
2018-07-08T03:39:19.796Z,23.02
2018-07-08T03:40:20.372Z,23.00
2018-07-08T03:41:20.955Z,23.00
2018-07-08T03:42:21.535Z,23.06
2018-07-08T03:43:22.115Z,23.02
2018-07-08T03:44:22.691Z,23.13
2018-07-08T03:45:23.269Z,23.10
2018-07-08T03:46:23.853Z,23.05
2018-07-08T03:47:24.477Z,23.00
2018-07-08T03:48:25.107Z,23.00
2018-07-08T03:49:25.683Z,23.12
2018-07-08T03:50:26.308Z,23.06
2018-07-08T03:51:26.940Z,23.03
2018-07-08T03:52:27.578Z,23.03
2018-07-08T03:53:28.201Z,23.00
2018-07-08T03:54:28.777Z,23.00
2018-07-08T03:55:29.356Z,22.98
2018-07-08T03:56:29.936Z,23.05
2018-07-08T03:57:30.518Z,23.03
2018-07-08T03:58:31.150Z,22.98
2018-07-08T03:59:31.722Z,23.02
2018-07-08T04:00:32.302Z,23.06
2018-07-08T04:01:32.884Z,23.05
2018-07-08T04:02:33.465Z,23.06
2018-07-08T04:03:55.823Z,23.06
2018-07-08T04:05:10.166Z,23.03
2018-07-08T04:13:18.465Z,23.02
2018-07-08T04:14:19.056Z,23.06
2018-07-08T04:15:19.666Z,22.99
2018-07-08T04:16:20.226Z,22.98
2018-07-08T04:17:20.812Z,23.02
2018-07-08T04:18:21.400Z,22.94
2018-07-08T04:19:22.037Z,22.96
2018-07-08T04:20:22.676Z,22.93
2018-07-08T04:21:23.263Z,22.96
2018-07-08T04:22:23.844Z,22.91
2018-07-08T04:23:24.433Z,22.99
2018-07-08T04:25:26.648Z,23.03
2018-07-08T04:26:27.234Z,22.96
2018-07-08T04:27:27.816Z,22.85
2018-07-08T04:28:28.448Z,22.87
2018-07-08T04:29:29.036Z,22.99
2018-07-08T04:30:29.763Z,22.94
2018-07-08T04:31:30.252Z,22.98
2018-07-08T04:32:30.845Z,22.94
2018-07-08T04:33:31.428Z,22.91
2018-07-08T04:34:32.012Z,22.91
2018-07-08T04:35:32.641Z,22.85
2018-07-08T04:36:33.228Z,22.81
2018-07-08T04:37:33.903Z,22.81
2018-07-08T04:38:34.453Z,22.94
2018-07-08T04:39:35.037Z,22.90
2018-07-08T04:40:35.618Z,22.88
2018-07-08T04:41:36.208Z,22.88
2018-07-08T04:42:36.846Z,22.91
2018-07-08T04:43:37.482Z,22.85
2018-07-08T04:44:38.117Z,22.90
2018-07-08T04:45:38.699Z,22.90
2018-07-08T04:46:39.288Z,22.85
2018-07-08T04:47:39.873Z,22.90
2018-07-08T04:48:40.460Z,22.87
2018-07-08T04:49:41.095Z,22.84
2018-07-08T04:50:41.674Z,22.84
2018-07-08T04:51:42.308Z,22.87
2018-07-08T04:52:42.893Z,22.85
2018-07-08T04:53:43.480Z,22.87
2018-07-08T04:54:44.118Z,22.84
2018-07-08T04:55:44.699Z,22.80
2018-07-08T04:56:45.289Z,22.85
2018-07-08T04:57:45.873Z,22.83
2018-07-08T04:58:46.455Z,22.85
2018-07-08T04:59:47.092Z,22.90
2018-07-08T05:00:47.698Z,22.88
2018-07-08T05:01:48.264Z,22.90
2018-07-08T05:02:48.899Z,22.87
2018-07-08T05:03:54.532Z,22.90
2018-07-08T05:04:55.121Z,22.85
2018-07-08T05:05:55.708Z,22.83
2018-07-08T05:06:56.296Z,22.83
2018-07-08T05:07:56.881Z,22.85
2018-07-08T05:08:57.517Z,22.85
2018-07-08T05:09:58.100Z,22.85
2018-07-08T05:10:58.687Z,22.85
2018-07-08T05:11:59.322Z,22.81
2018-07-08T05:12:59.908Z,22.81
2018-07-08T05:14:00.492Z,22.80
2018-07-08T05:15:01.076Z,22.78
2018-07-08T05:16:01.665Z,22.78
2018-07-08T05:17:02.245Z,22.78
2018-07-08T05:18:02.831Z,22.75
2018-07-08T05:19:03.414Z,22.75
2018-07-08T05:20:04.001Z,22.78
2018-07-08T05:21:04.635Z,22.76
2018-07-08T05:22:05.272Z,22.87
2018-07-08T05:23:05.858Z,22.80
2018-07-08T05:24:06.446Z,22.72
2018-07-08T05:25:07.034Z,22.80
2018-07-08T05:26:07.613Z,22.72
2018-07-08T05:27:08.201Z,22.76
2018-07-08T05:28:08.789Z,22.75
2018-07-08T05:29:09.425Z,22.83
2018-07-08T05:30:10.010Z,22.78
2018-07-08T05:31:10.695Z,22.76
2018-07-08T05:32:11.379Z,22.75
2018-07-08T05:33:11.966Z,22.84
2018-07-08T05:34:12.552Z,22.70
2018-07-08T05:35:13.137Z,22.73
2018-07-08T05:36:13.817Z,22.73
2018-07-08T05:37:14.453Z,22.76
2018-07-08T05:38:15.043Z,22.76
2018-07-08T05:39:15.675Z,22.70
2018-07-08T05:40:16.260Z,22.76
2018-07-08T05:41:16.846Z,22.83
2018-07-08T05:42:17.432Z,22.84
2018-07-08T05:43:18.016Z,22.76
2018-07-08T05:44:18.602Z,22.73
2018-07-08T05:45:19.190Z,22.76
2018-07-08T05:46:19.779Z,22.75
2018-07-08T05:47:20.358Z,22.75
2018-07-08T05:48:20.943Z,22.69
2018-07-08T05:49:21.580Z,22.80
2018-07-08T05:50:22.239Z,22.81
2018-07-08T05:51:22.801Z,22.73
2018-07-08T05:52:23.379Z,22.76
2018-07-08T05:53:23.960Z,22.78
2018-07-08T05:54:24.550Z,22.70
2018-07-08T05:55:25.137Z,22.75
2018-07-08T05:56:25.772Z,22.75
2018-07-08T05:57:26.360Z,22.73
2018-07-08T05:58:26.987Z,22.75
2018-07-08T05:59:27.573Z,22.72
2018-07-08T06:00:28.157Z,22.75
2018-07-08T06:01:28.738Z,22.70
2018-07-08T06:02:29.324Z,22.73
2018-07-08T06:03:29.906Z,22.80
2018-07-08T06:04:30.531Z,22.72
2018-07-08T06:05:31.077Z,22.73
2018-07-08T06:06:31.662Z,22.76
2018-07-08T06:07:32.243Z,22.68
2018-07-08T06:08:32.832Z,22.76
2018-07-08T06:09:33.417Z,22.73
2018-07-08T06:10:34.049Z,22.69
2018-07-08T06:11:34.687Z,22.75
2018-07-08T06:12:35.270Z,22.75
2018-07-08T06:13:35.905Z,22.78
2018-07-08T06:14:36.491Z,22.72
2018-07-08T06:15:37.073Z,22.72
2018-07-08T06:16:37.663Z,22.75
2018-07-08T06:17:38.246Z,22.75
2018-07-08T06:18:38.826Z,22.75
2018-07-08T06:19:39.415Z,22.70
2018-07-08T06:20:39.998Z,22.73
2018-07-08T06:21:40.580Z,22.70
2018-07-08T06:22:41.163Z,22.72
2018-07-08T06:23:41.748Z,22.69
2018-07-08T06:24:42.326Z,22.69
2018-07-08T06:25:42.913Z,22.69
2018-07-08T06:26:43.501Z,22.76
2018-07-08T06:27:44.085Z,22.72
2018-07-08T06:28:44.672Z,22.75
2018-07-08T06:29:45.309Z,22.73
2018-07-08T06:30:45.895Z,22.76
2018-07-08T06:31:46.509Z,22.72
2018-07-08T06:32:47.070Z,22.76
2018-07-08T06:33:47.694Z,22.73
2018-07-08T06:34:48.281Z,22.69
2018-07-08T06:35:48.866Z,22.69
2018-07-08T06:36:49.446Z,22.72
2018-07-08T06:37:50.035Z,22.72
2018-07-08T06:38:50.672Z,22.70
2018-07-08T06:39:51.257Z,22.76
2018-07-08T06:40:51.840Z,22.80
2018-07-08T06:41:52.428Z,22.76
2018-07-08T06:42:53.009Z,22.83
2018-07-08T06:43:53.600Z,22.75
2018-07-08T06:44:54.179Z,22.75
2018-07-08T06:45:54.815Z,22.83
2018-07-08T06:46:55.394Z,22.78
2018-07-08T06:47:56.034Z,22.72
2018-07-08T06:48:56.621Z,22.75
2018-07-08T06:49:57.206Z,22.75
2018-07-08T06:50:57.792Z,22.73
2018-07-08T06:51:58.435Z,22.78
2018-07-08T06:52:59.016Z,22.72
2018-07-08T06:53:59.602Z,22.75
2018-07-08T06:55:00.189Z,22.73
2018-07-08T06:56:00.777Z,22.80
2018-07-08T06:57:01.364Z,22.76
2018-07-08T06:58:02.052Z,22.83
2018-07-08T06:59:02.633Z,22.80
2018-07-08T07:00:03.210Z,22.80
2018-07-08T07:01:03.793Z,22.75
2018-07-08T07:02:04.379Z,22.78
2018-07-08T07:03:05.012Z,22.84
2018-07-08T07:04:05.597Z,22.81
2018-07-08T07:05:06.223Z,22.75
2018-07-08T07:06:06.813Z,22.84
2018-07-08T07:07:07.392Z,22.84
2018-07-08T07:08:07.979Z,22.83
2018-07-08T07:09:08.565Z,22.88
2018-07-08T07:10:09.201Z,22.84
2018-07-08T07:11:09.786Z,22.88
2018-07-08T07:12:10.373Z,22.88
2018-07-08T07:13:10.958Z,22.85
2018-07-08T07:14:11.543Z,22.87
2018-07-08T07:15:12.181Z,22.83
2018-07-08T07:16:12.816Z,22.91
2018-07-08T07:17:13.402Z,22.85
2018-07-08T07:18:14.037Z,22.88
2018-07-08T07:19:14.624Z,22.90
2018-07-08T07:20:15.210Z,22.87
2018-07-08T07:21:15.847Z,22.88
2018-07-08T07:22:16.431Z,22.85
2018-07-08T07:23:17.072Z,22.85
2018-07-08T07:24:17.661Z,22.90
2018-07-08T07:25:18.246Z,22.85
2018-07-08T07:26:18.826Z,22.94
2018-07-08T07:27:19.416Z,22.88
2018-07-08T07:28:20.000Z,22.94
2018-07-08T07:29:20.635Z,22.94
2018-07-08T07:30:21.223Z,22.90
2018-07-08T07:31:22.005Z,22.85
2018-07-08T07:32:22.593Z,22.87
2018-07-08T07:33:23.178Z,22.96
2018-07-08T07:34:23.762Z,22.88
2018-07-08T07:35:24.351Z,22.83
2018-07-08T07:36:24.928Z,22.96
2018-07-08T07:37:25.608Z,22.99
2018-07-08T07:38:26.197Z,22.96
2018-07-08T07:39:26.787Z,23.03
2018-07-08T07:40:27.372Z,22.96
2018-07-08T07:41:27.961Z,22.94
2018-07-08T07:42:28.549Z,22.98
2018-07-08T07:43:29.133Z,22.93
2018-07-08T07:44:29.719Z,22.96
2018-07-08T07:45:30.347Z,22.94
2018-07-08T07:46:30.885Z,22.90
2018-07-08T07:47:31.473Z,22.99
2018-07-08T07:48:32.108Z,23.03
2018-07-08T07:49:32.694Z,22.94
2018-07-08T07:50:33.274Z,23.03
2018-07-08T07:51:33.865Z,23.03
2018-07-08T07:52:34.499Z,23.03
2018-07-08T07:53:35.139Z,23.03
2018-07-08T07:54:35.726Z,23.03
2018-07-08T07:55:36.310Z,23.05
2018-07-08T07:56:36.897Z,22.98
2018-07-08T07:57:37.491Z,23.06
2018-07-08T07:58:38.119Z,23.03
2018-07-08T07:59:38.696Z,23.00
2018-07-08T08:00:39.281Z,23.05
2018-07-08T08:01:39.869Z,23.00
2018-07-08T08:02:40.455Z,23.03
2018-07-08T08:03:41.084Z,23.00
2018-07-08T08:04:41.669Z,23.02
2018-07-08T08:05:42.253Z,23.12
2018-07-08T08:06:42.889Z,23.00
2018-07-08T08:07:48.579Z,23.05
2018-07-08T08:08:49.215Z,23.02
2018-07-08T08:09:49.800Z,23.09
2018-07-08T08:10:50.547Z,23.10
2018-07-08T08:11:51.020Z,22.99
2018-07-08T08:12:51.604Z,23.08
2018-07-08T08:13:52.251Z,23.06
2018-07-08T08:14:52.771Z,22.98
2018-07-08T08:15:53.362Z,23.05
2018-07-08T08:16:53.997Z,23.03
2018-07-08T08:17:54.627Z,23.08
2018-07-08T08:18:55.215Z,23.09
2018-07-08T08:19:55.800Z,23.10
2018-07-08T08:20:56.397Z,23.17
2018-07-08T08:21:57.017Z,23.08
2018-07-08T08:22:57.598Z,23.15
2018-07-08T08:23:58.238Z,23.06
2018-07-08T08:24:58.825Z,23.10
2018-07-08T08:25:59.405Z,23.06
2018-07-08T08:27:00.049Z,23.03
2018-07-08T08:28:00.678Z,23.15
2018-07-08T08:29:01.264Z,23.13
2018-07-08T08:30:01.850Z,23.13
2018-07-08T08:31:02.431Z,23.18
2018-07-08T08:32:03.020Z,23.12
2018-07-08T08:33:03.654Z,23.18
2018-07-08T08:34:04.243Z,23.21
2018-07-08T08:35:04.876Z,23.17
2018-07-08T08:36:05.460Z,23.18
2018-07-08T08:37:06.045Z,23.15
2018-07-08T08:38:06.693Z,23.12
2018-07-08T08:39:07.259Z,23.08
2018-07-08T08:40:07.895Z,23.08
2018-07-08T08:41:08.527Z,23.15
2018-07-08T08:42:09.111Z,23.17
2018-07-08T08:43:09.696Z,23.17
2018-07-08T08:44:10.278Z,23.15
2018-07-08T08:45:10.915Z,23.12
2018-07-08T08:46:11.502Z,23.21
2018-07-08T08:47:12.135Z,23.17
2018-07-08T08:48:12.732Z,23.17
2018-07-08T08:49:13.359Z,23.08
2018-07-08T08:50:13.990Z,23.10
2018-07-08T08:51:14.583Z,23.20
2018-07-08T08:52:15.166Z,23.09
2018-07-08T08:53:15.749Z,23.12
2018-07-08T08:54:16.336Z,23.17
2018-07-08T08:55:16.918Z,23.18
2018-07-08T08:56:17.505Z,23.18
2018-07-08T08:57:18.088Z,23.17
2018-07-08T08:58:18.732Z,23.18
2018-07-08T08:59:19.320Z,23.18
2018-07-08T09:00:19.956Z,23.21
2018-07-08T09:01:20.541Z,23.25
2018-07-08T09:02:21.132Z,23.24
2018-07-08T09:03:21.712Z,23.23
2018-07-08T09:04:22.298Z,23.23
2018-07-08T09:05:22.884Z,23.24
2018-07-08T09:06:23.522Z,23.15
2018-07-08T09:07:24.110Z,23.21
2018-07-08T09:08:24.691Z,23.23
2018-07-08T09:09:25.282Z,23.24
2018-07-08T09:10:25.869Z,23.23
2018-07-08T09:11:26.456Z,23.20
2018-07-08T09:12:27.071Z,23.24
2018-07-08T09:13:27.678Z,23.27
2018-07-08T09:14:28.265Z,23.21
2018-07-08T09:15:28.849Z,23.37
2018-07-08T09:16:29.431Z,23.34
2018-07-08T09:17:30.015Z,23.37
2018-07-08T09:18:30.604Z,23.32
2018-07-08T09:19:31.190Z,23.40
2018-07-08T09:20:31.779Z,23.40
2018-07-08T09:21:32.417Z,23.32
2018-07-08T09:22:32.998Z,23.37
2018-07-08T09:23:33.588Z,23.37
2018-07-08T09:24:34.233Z,23.31
2018-07-08T09:25:34.860Z,23.37
2018-07-08T09:26:35.441Z,23.40
2018-07-08T09:27:36.077Z,23.43
2018-07-08T09:28:36.665Z,23.37
2018-07-08T09:29:37.254Z,23.39
2018-07-08T09:30:37.842Z,23.41
2018-07-08T09:31:38.424Z,23.31
2018-07-08T09:32:39.011Z,23.37
2018-07-08T09:33:39.640Z,23.40
2018-07-08T09:34:40.229Z,23.36
2018-07-08T09:35:40.815Z,23.40
2018-07-08T09:36:41.402Z,23.41
2018-07-08T09:37:41.988Z,23.41
2018-07-08T09:38:42.601Z,23.40
2018-07-08T09:39:43.159Z,23.34
2018-07-08T09:40:43.742Z,23.36
2018-07-08T09:41:44.328Z,23.41
2018-07-08T09:42:44.962Z,23.41
2018-07-08T09:43:45.548Z,23.43
2018-07-08T09:44:46.182Z,23.40
2018-07-08T09:45:46.775Z,23.43
2018-07-08T09:46:47.366Z,23.48
2018-07-08T09:47:48.009Z,23.54
2018-07-08T09:48:48.597Z,23.63
2018-07-08T09:49:49.240Z,23.55
2018-07-08T09:50:49.831Z,23.71
2018-07-08T09:51:50.419Z,23.73
2018-07-08T09:52:51.015Z,23.74
2018-07-08T09:53:51.598Z,23.83
2018-07-08T09:54:52.195Z,23.84
2018-07-08T09:55:52.781Z,23.92
2018-07-08T09:56:53.373Z,23.87
2018-07-08T09:57:54.009Z,24.01
2018-07-08T09:58:54.601Z,23.92
2018-07-08T09:59:55.249Z,23.99
2018-07-08T10:00:55.841Z,23.96
2018-07-08T10:01:56.427Z,24.03
2018-07-08T10:02:57.017Z,24.13
2018-07-08T10:03:57.655Z,24.08
2018-07-08T10:04:58.330Z,24.11
2018-07-08T10:05:58.894Z,24.21
2018-07-08T10:06:59.488Z,24.21
2018-07-08T10:08:00.072Z,24.23
2018-07-08T10:09:00.671Z,24.29
2018-07-08T10:10:01.304Z,24.24
2018-07-08T10:11:01.901Z,24.35
2018-07-08T10:12:02.486Z,24.32
2018-07-08T10:13:03.084Z,24.30
2018-07-08T10:14:03.714Z,24.30
2018-07-08T10:15:04.263Z,24.39
2018-07-08T10:16:04.849Z,24.36
2018-07-08T10:17:05.495Z,24.39
2018-07-08T10:18:06.088Z,24.32
2018-07-08T10:19:06.681Z,24.36
2018-07-08T10:20:07.295Z,24.39
2018-07-08T10:21:08.056Z,24.40
2018-07-08T10:22:08.696Z,24.39
2018-07-08T10:23:09.282Z,24.39
2018-07-08T10:24:09.873Z,24.48
2018-07-08T10:25:10.475Z,24.51
2018-07-08T10:26:11.054Z,24.48
2018-07-08T10:27:11.648Z,24.51
2018-07-08T10:28:12.285Z,24.54
2018-07-08T10:29:12.876Z,24.48
2018-07-08T10:30:13.479Z,24.50
2018-07-08T10:31:14.069Z,24.54
2018-07-08T10:32:14.663Z,24.54
2018-07-08T10:33:15.243Z,24.57
2018-07-08T10:34:15.835Z,24.61
2018-07-08T10:35:16.429Z,24.58
2018-07-08T10:36:17.074Z,24.57
2018-07-08T10:37:17.723Z,24.70
2018-07-08T10:38:18.365Z,24.60
2018-07-08T10:39:19.103Z,24.57
2018-07-08T10:40:19.696Z,24.61
2018-07-08T10:41:20.289Z,24.74
2018-07-08T10:42:20.882Z,24.73
2018-07-08T10:43:21.503Z,24.76
2018-07-08T10:44:22.069Z,24.76
2018-07-08T10:45:22.663Z,24.85
2018-07-08T10:46:23.254Z,24.88
2018-07-08T10:47:23.849Z,24.84
2018-07-08T10:48:24.486Z,24.80
2018-07-08T10:49:25.429Z,24.95
2018-07-08T10:50:26.022Z,24.85
2018-07-08T10:51:26.617Z,24.85
2018-07-08T10:52:27.262Z,24.86
2018-07-08T10:53:27.860Z,24.88
2018-07-08T10:54:28.452Z,24.88
2018-07-08T10:55:29.103Z,24.92
2018-07-08T10:56:29.640Z,24.93
2018-07-08T10:57:30.228Z,25.03
2018-07-08T10:58:30.875Z,25.03
2018-07-08T10:59:31.510Z,24.98
2018-07-08T11:00:32.100Z,25.01
2018-07-08T11:01:32.697Z,25.08
2018-07-08T11:02:33.340Z,25.03
2018-07-08T11:03:33.931Z,25.01
2018-07-08T11:04:34.538Z,25.04
2018-07-08T11:05:35.123Z,25.03
2018-07-08T11:06:35.764Z,25.01
2018-07-08T11:07:36.408Z,24.93
2018-07-08T11:08:36.994Z,24.99
2018-07-08T11:09:37.637Z,25.06
2018-07-08T11:10:38.244Z,24.99
2018-07-08T11:11:38.823Z,24.98
2018-07-08T11:12:39.471Z,25.06
2018-07-08T11:13:40.118Z,25.03
2018-07-08T11:14:40.712Z,25.03
2018-07-08T11:15:41.346Z,25.06
2018-07-08T11:16:41.946Z,25.04
2018-07-08T11:17:42.544Z,25.14
2018-07-08T11:18:43.184Z,25.08
2018-07-08T11:19:43.824Z,25.10
2018-07-08T11:20:44.457Z,25.18
2018-07-08T11:21:45.018Z,25.14
2018-07-08T11:22:45.603Z,25.11
2018-07-08T11:23:46.196Z,25.18
2018-07-08T11:24:46.793Z,25.23
2018-07-08T11:25:47.383Z,25.18
2018-07-08T11:26:48.028Z,25.21
2018-07-08T11:27:48.622Z,25.18
2018-07-08T11:28:49.259Z,25.14
2018-07-08T11:29:49.854Z,25.26
2018-07-08T11:30:50.548Z,25.31
2018-07-08T11:31:51.241Z,25.22
2018-07-08T11:32:51.842Z,25.22
2018-07-08T11:33:52.428Z,25.33
2018-07-08T11:34:53.027Z,25.35
2018-07-08T11:35:53.616Z,25.36
2018-07-08T11:36:54.310Z,25.33
2018-07-08T11:37:54.956Z,25.43
2018-07-08T11:38:55.546Z,25.44
2018-07-08T11:39:56.147Z,25.44
2018-07-08T11:40:56.742Z,25.36
2018-07-08T11:41:57.334Z,25.44
2018-07-08T11:42:57.940Z,25.44
2018-07-08T11:43:58.574Z,25.46
2018-07-08T11:44:59.175Z,25.41
2018-07-08T11:45:59.774Z,25.55
2018-07-08T11:47:00.465Z,25.54
2018-07-08T11:48:01.060Z,25.47
2018-07-08T11:49:01.660Z,25.59
2018-07-08T11:50:02.301Z,25.62
2018-07-08T11:51:02.902Z,25.65
2018-07-08T11:52:03.849Z,25.75
2018-07-08T11:53:04.448Z,25.77
2018-07-08T11:54:05.047Z,25.83
2018-07-08T11:55:05.643Z,25.85
2018-07-08T11:56:06.242Z,25.83
2018-07-08T11:57:06.829Z,25.85
2018-07-08T11:58:07.471Z,25.80
2018-07-08T12:00:09.643Z,25.85
2018-07-08T12:03:27.272Z,25.95
2018-07-08T12:04:27.913Z,25.98
2018-07-08T12:05:28.561Z,25.96
2018-07-08T12:06:29.247Z,25.98
2018-07-08T12:07:29.766Z,26.13
2018-07-08T12:08:30.409Z,26.13
2018-07-08T12:09:31.007Z,26.09
2018-07-08T12:10:31.608Z,26.15
2018-07-08T12:11:32.254Z,26.22
2018-07-08T12:12:32.853Z,26.21
2018-07-08T12:13:33.499Z,26.29
2018-07-08T12:14:34.145Z,26.37
2018-07-08T12:15:34.700Z,26.38
2018-07-08T12:16:35.294Z,26.45
2018-07-08T12:17:35.947Z,26.52
2018-07-08T12:18:36.547Z,26.47
2018-07-08T12:19:37.139Z,26.56
2018-07-08T12:20:37.739Z,26.56
2018-07-08T12:21:38.333Z,26.66
2018-07-08T12:22:38.937Z,26.68
2018-07-08T12:23:39.587Z,26.73
2018-07-08T12:24:40.231Z,26.83
2018-07-08T12:25:40.830Z,26.84
2018-07-08T12:26:41.425Z,26.89
2018-07-08T12:27:42.085Z,26.81
2018-07-08T12:28:42.624Z,26.90
2018-07-08T12:29:43.271Z,26.99
2018-07-08T12:30:43.867Z,26.93
2018-07-08T12:31:44.463Z,26.97
2018-07-08T12:32:45.065Z,27.00
2018-07-08T12:33:45.665Z,27.03
2018-07-08T12:34:46.266Z,27.10
2018-07-08T12:35:46.863Z,27.11
2018-07-08T12:36:47.540Z,27.25
2018-07-08T12:37:48.111Z,27.30
2018-07-08T12:38:48.709Z,27.27
2018-07-08T12:39:49.306Z,27.37
2018-07-08T12:40:49.911Z,27.35
2018-07-08T12:41:50.557Z,27.35
2018-07-08T12:42:51.201Z,27.42
2018-07-08T12:46:09.056Z,27.51
2018-07-08T12:47:09.648Z,27.55
2018-07-08T12:48:10.301Z,27.65
2018-07-08T12:49:10.901Z,27.67
2018-07-08T12:50:11.548Z,27.75
2018-07-08T12:51:12.149Z,27.80
2018-07-08T12:53:14.381Z,27.89
2018-07-08T12:54:14.975Z,27.82
2018-07-08T12:55:15.582Z,27.82
2018-07-08T12:57:17.770Z,27.92
2018-07-08T12:58:18.417Z,27.87
2018-07-08T13:00:38.418Z,28.05
2018-07-08T13:01:39.812Z,28.04
2018-07-08T13:03:41.996Z,28.14
2018-07-08T13:09:45.763Z,28.37
2018-07-08T13:13:04.432Z,28.33
2018-07-08T13:14:05.075Z,28.32
2018-07-08T13:15:05.666Z,28.45
2018-07-08T13:16:06.264Z,28.49
2018-07-08T13:17:06.866Z,28.44
2018-07-08T13:18:07.465Z,28.45
2018-07-08T13:19:08.064Z,28.42
2018-07-08T13:20:08.716Z,28.52
2018-07-08T13:21:09.313Z,28.49
2018-07-08T13:22:09.915Z,28.48
2018-07-08T13:23:10.514Z,28.51
2018-07-08T13:24:11.164Z,28.51
2018-07-08T13:25:11.755Z,28.60
2018-07-08T13:26:12.375Z,28.60
2018-07-08T13:27:12.956Z,28.66
2018-07-08T13:28:13.551Z,28.62
2018-07-08T13:29:14.148Z,28.66
2018-07-08T13:30:14.746Z,28.67